createdAt,value
2019-01-22T00:24:51.868Z,40.05
2019-01-22T00:27:39.834Z,36.17
2019-01-22T00:30:27.721Z,39.60
2019-01-22T00:51:06.951Z,39.30
2019-01-22T01:14:47.009Z,36.50
2019-01-22T02:14:24.995Z,37.03
2019-01-22T02:17:06.472Z,36.30
2019-01-22T02:19:48.163Z,36.15
2019-01-22T02:22:55.677Z,32.55
2019-01-22T02:25:43.554Z,32.08
2019-01-22T02:28:51.054Z,35.10
2019-01-22T02:31:59.885Z,35.80
2019-01-22T02:34:47.725Z,37.40
2019-01-22T02:37:35.533Z,40.28
2019-01-22T03:01:29.713Z,35.50
2019-01-22T03:28:04.710Z,33.70
2019-01-22T03:30:47.383Z,34.83
2019-01-22T03:36:40.425Z,34.65
2019-01-22T04:30:26.884Z,33.10
2019-01-22T04:36:21.253Z,35.52
2019-01-22T05:17:50.562Z,41.60
2019-01-22T05:35:28.635Z,32.98
2019-01-22T05:40:53.014Z,27.95
2019-01-22T05:46:47.017Z,35.23
2019-01-22T05:58:38.402Z,34.80
2019-01-22T06:34:14.396Z,31.48
2019-01-22T07:06:44.747Z,35.35
2019-01-22T07:54:26.066Z,33.18
2019-01-22T08:09:19.774Z,34.13
2019-01-22T08:29:53.328Z,32.65
2019-01-22T08:35:46.692Z,33.38
2019-01-22T08:44:36.755Z,29.50
2019-01-22T09:52:59.898Z,30.20
2019-01-22T09:58:38.837Z,27.27
2019-01-22T10:25:15.271Z,29.57
2019-01-22T10:30:48.620Z,28.40
2019-01-22T10:33:17.414Z,29.18
2019-01-22T10:35:46.431Z,28.25
2019-01-22T10:38:15.212Z,28.73
2019-01-22T10:40:43.986Z,29.18
2019-01-22T10:43:12.756Z,29.15
2019-01-22T10:45:41.579Z,28.65
2019-01-22T10:48:10.339Z,25.10
2019-01-22T10:50:39.311Z,26.93
2019-01-22T10:53:08.491Z,26.12
2019-01-22T10:55:37.335Z,23.07
2019-01-22T10:58:08.786Z,24.30
2019-01-22T11:00:36.827Z,27.50
2019-01-22T11:03:05.604Z,26.42
2019-01-22T11:05:36.833Z,26.17
2019-01-22T11:08:06.016Z,27.32
2019-01-22T11:10:34.805Z,27.70
2019-01-22T11:13:03.993Z,28.73
2019-01-22T11:15:32.760Z,26.40
2019-01-22T11:18:02.009Z,26.55
2019-01-22T11:20:33.478Z,25.88
2019-01-22T11:23:02.248Z,27.10
2019-01-22T11:25:32.834Z,26.68
2019-01-22T11:28:01.580Z,27.25
2019-01-22T11:30:30.446Z,24.37
2019-01-22T11:32:59.297Z,24.72
2019-01-22T11:35:28.077Z,25.90
2019-01-22T11:37:56.825Z,25.17
2019-01-22T11:40:28.521Z,24.57
2019-01-22T11:42:57.266Z,23.95
2019-01-22T11:45:26.221Z,24.77
2019-01-22T11:47:54.989Z,25.02
2019-01-22T11:50:23.921Z,24.20
2019-01-22T11:52:52.813Z,20.45
2019-01-22T11:55:21.564Z,20.37
2019-01-22T11:57:50.308Z,22.22
2019-01-22T12:00:29.371Z,23.80
2019-01-22T12:02:58.501Z,22.37
2019-01-22T12:05:27.347Z,22.90
2019-01-22T12:07:56.201Z,22.40
2019-01-22T12:10:24.957Z,22.67
2019-01-22T12:12:53.742Z,22.75
2019-01-22T12:15:22.514Z,23.50
2019-01-22T12:17:51.263Z,22.37
2019-01-22T12:20:40.358Z,23.27
2019-01-22T12:23:09.105Z,22.25
2019-01-22T12:25:37.890Z,21.37
2019-01-22T12:28:06.726Z,22.10
2019-01-22T12:30:37.516Z,22.15
2019-01-22T12:33:06.602Z,22.93
2019-01-22T12:35:35.394Z,22.77
2019-01-22T12:38:05.140Z,21.52
2019-01-22T12:40:33.989Z,21.35
2019-01-22T12:43:02.951Z,21.80
2019-01-22T12:45:34.173Z,21.82
2019-01-22T12:48:03.114Z,18.65
2019-01-22T12:50:32.168Z,21.20
2019-01-22T12:53:00.959Z,22.40
2019-01-22T12:55:29.721Z,20.48
2019-01-22T12:57:58.668Z,16.95
2019-01-22T13:00:30.525Z,20.65
2019-01-22T13:02:59.457Z,20.75
2019-01-22T13:05:44.010Z,20.08
2019-01-22T13:08:12.840Z,21.10
2019-01-22T13:10:41.588Z,23.00
2019-01-22T13:13:10.390Z,21.35
2019-01-22T13:15:39.144Z,21.57
2019-01-22T13:18:07.926Z,20.12
2019-01-22T13:20:36.751Z,20.60
2019-01-22T13:23:05.707Z,20.25
2019-01-22T13:25:34.516Z,20.65
2019-01-22T13:28:03.325Z,22.35
2019-01-22T13:30:32.344Z,20.17
2019-01-22T13:33:01.272Z,20.55
2019-01-22T13:35:30.147Z,21.20
2019-01-22T13:37:58.929Z,21.23
2019-01-22T13:40:27.678Z,19.90
2019-01-22T13:42:56.465Z,21.35
2019-01-22T13:45:30.596Z,19.95
2019-01-22T13:48:01.126Z,19.50
2019-01-22T13:50:29.873Z,20.17
2019-01-22T13:52:58.667Z,20.25
2019-01-22T13:55:32.416Z,20.27
2019-01-22T13:58:01.202Z,19.87
2019-01-22T14:00:31.623Z,18.95
2019-01-22T14:03:01.704Z,19.05
2019-01-22T14:05:31.153Z,19.73
2019-01-22T14:08:00.210Z,19.02
2019-01-22T14:10:29.040Z,19.65
2019-01-22T14:12:57.797Z,18.48
2019-01-22T14:15:35.531Z,19.30
2019-01-22T14:18:05.295Z,20.95
2019-01-22T14:20:34.142Z,18.42
2019-01-22T14:23:02.885Z,19.17
2019-01-22T14:25:31.808Z,20.10
2019-01-22T14:28:00.595Z,18.52
2019-01-22T14:30:31.882Z,19.15
2019-01-22T14:33:00.766Z,14.78
2019-01-22T14:35:29.513Z,19.77
2019-01-22T14:37:58.302Z,18.05
2019-01-22T14:40:27.090Z,19.98
2019-01-22T14:42:56.165Z,19.52
2019-01-22T14:45:25.236Z,19.25
2019-01-22T14:47:54.070Z,18.40
2019-01-22T14:50:31.298Z,18.02
2019-01-22T14:53:00.085Z,18.40
2019-01-22T14:55:28.925Z,19.32
2019-01-22T14:57:57.890Z,21.17
2019-01-22T15:00:28.747Z,18.77
2019-01-22T15:02:58.813Z,20.05
2019-01-22T15:05:28.024Z,19.23
2019-01-22T15:07:56.791Z,20.92
2019-01-22T15:10:25.584Z,20.48
2019-01-22T15:12:57.013Z,19.90
2019-01-22T15:15:26.063Z,18.77
2019-01-22T15:17:54.902Z,19.05
2019-01-22T15:20:25.369Z,20.32
2019-01-22T15:22:54.205Z,20.92
2019-01-22T15:25:23.350Z,20.62
2019-01-22T15:27:52.112Z,20.43
2019-01-22T15:30:23.960Z,18.98
2019-01-22T15:32:52.797Z,21.82
2019-01-22T15:35:21.525Z,20.85
2019-01-22T15:37:50.380Z,22.25
2019-01-22T15:40:21.462Z,20.80
2019-01-22T15:42:50.268Z,22.70
2019-01-22T15:45:19.275Z,21.75
2019-01-22T15:47:48.327Z,21.73
2019-01-22T15:50:20.290Z,21.48
2019-01-22T15:52:49.160Z,21.62
2019-01-22T15:55:24.040Z,20.82
2019-01-22T15:57:52.904Z,22.40
2019-01-22T16:00:25.730Z,21.42
2019-01-22T16:02:54.823Z,23.45
2019-01-22T16:05:23.775Z,22.87
2019-01-22T16:07:52.624Z,21.95
2019-01-22T16:10:21.483Z,22.17
2019-01-22T16:12:50.424Z,21.62
2019-01-22T16:15:21.686Z,23.30
2019-01-22T16:17:51.810Z,22.00
2019-01-22T16:20:23.313Z,22.48
2019-01-22T16:22:52.551Z,21.60
2019-01-22T16:25:21.857Z,22.00
2019-01-22T16:27:50.697Z,24.67
2019-01-22T16:30:21.659Z,23.10
2019-01-22T16:32:50.593Z,23.65
2019-01-22T16:35:21.142Z,23.67
2019-01-22T16:37:50.134Z,23.30
2019-01-22T16:40:19.000Z,24.57
2019-01-22T16:42:48.423Z,22.82
2019-01-22T16:45:20.455Z,24.32
2019-01-22T16:47:49.346Z,22.82
2019-01-22T16:50:18.257Z,24.47
2019-01-22T16:52:47.430Z,23.80
2019-01-22T16:55:22.097Z,23.20
2019-01-22T16:57:50.921Z,23.45
2019-01-22T17:00:31.202Z,25.15
2019-01-22T17:03:00.225Z,24.80
2019-01-22T17:05:29.269Z,25.48
2019-01-22T17:07:58.173Z,26.73
2019-01-22T17:10:27.128Z,23.77
2019-01-22T17:12:56.540Z,24.72
2019-01-22T17:15:25.433Z,23.85
2019-01-22T17:17:54.534Z,25.85
2019-01-22T17:20:28.870Z,24.35
2019-01-22T17:23:01.980Z,24.77
2019-01-22T17:25:28.953Z,24.20
2019-01-22T17:27:58.067Z,27.27
2019-01-22T17:30:27.037Z,25.70
2019-01-22T17:32:57.668Z,26.42
2019-01-22T17:35:26.711Z,25.15
2019-01-22T17:37:55.495Z,24.02
2019-01-22T17:40:24.359Z,26.20
2019-01-22T17:42:53.217Z,25.05
2019-01-22T17:45:22.097Z,25.52
2019-01-22T17:47:51.363Z,26.50
2019-01-22T17:50:20.175Z,27.95
2019-01-22T17:52:48.957Z,28.20
2019-01-22T17:55:17.821Z,28.42
2019-01-22T17:57:46.666Z,25.85
2019-01-22T18:00:19.548Z,28.15
2019-01-22T18:02:48.998Z,27.40
2019-01-22T18:05:21.586Z,29.70
2019-01-22T18:07:50.456Z,28.70
2019-01-22T18:10:21.762Z,29.48
2019-01-22T18:12:50.600Z,28.38
2019-01-22T18:15:19.466Z,27.62
2019-01-22T18:17:48.432Z,26.62
2019-01-22T18:20:25.786Z,27.37
2019-01-22T18:22:54.563Z,26.95
2019-01-22T18:25:23.377Z,26.07
2019-01-22T18:27:52.172Z,51.00
2019-01-22T18:30:27.554Z,35.83
2019-01-22T18:32:56.442Z,27.32
2019-01-22T18:35:38.142Z,26.68
2019-01-22T18:38:07.397Z,25.92
2019-01-22T18:40:36.244Z,27.10
2019-01-22T18:43:05.151Z,28.35
2019-01-22T18:45:34.082Z,26.75
2019-01-22T18:48:02.890Z,27.17
2019-01-22T18:50:31.776Z,28.07
2019-01-22T18:53:00.574Z,27.60
2019-01-22T18:55:29.500Z,27.85
2019-01-22T18:57:58.386Z,27.85
2019-01-22T19:00:27.210Z,29.72
2019-01-22T19:02:56.031Z,27.45
2019-01-22T19:05:24.833Z,25.55
2019-01-22T19:07:53.707Z,24.80
2019-01-22T19:10:25.434Z,26.20
2019-01-22T19:12:54.490Z,26.40
2019-01-22T19:15:24.717Z,25.48
2019-01-22T19:17:54.077Z,26.62
2019-01-22T19:20:23.010Z,24.80
2019-01-22T19:22:52.125Z,25.30
2019-01-22T19:25:23.813Z,26.20
2019-01-22T19:27:52.581Z,26.05
2019-01-22T19:30:26.625Z,26.00
2019-01-22T19:32:55.449Z,23.70
2019-01-22T19:35:24.198Z,24.98
2019-01-22T19:37:52.964Z,26.70
2019-01-22T19:40:22.077Z,27.25
2019-01-22T19:42:50.925Z,26.60
2019-01-22T19:45:22.577Z,25.08
2019-01-22T19:47:51.358Z,26.60
2019-01-22T19:50:20.129Z,25.65
2019-01-22T19:52:48.889Z,25.72
2019-01-22T19:55:17.694Z,23.27
2019-01-22T19:57:47.715Z,25.23
2019-01-22T20:00:19.814Z,24.45
2019-01-22T20:02:49.089Z,23.52
2019-01-22T20:05:18.679Z,24.02
2019-01-22T20:07:48.009Z,22.50
2019-01-22T20:10:18.200Z,23.73
2019-01-22T20:12:47.640Z,24.55
2019-01-22T20:15:20.508Z,24.20
2019-01-22T20:17:49.514Z,23.57
2019-01-22T20:20:21.421Z,23.50
2019-01-22T20:22:50.254Z,25.50
2019-01-22T20:25:19.333Z,25.00
2019-01-22T20:27:48.730Z,26.15
2019-01-22T20:30:23.303Z,25.00
2019-01-22T20:32:52.114Z,25.27
2019-01-22T20:35:20.941Z,26.10
2019-01-22T20:37:49.714Z,26.42
2019-01-22T20:40:18.559Z,24.12
2019-01-22T20:42:47.422Z,24.20
2019-01-22T20:45:24.572Z,27.17
2019-01-22T20:47:53.381Z,24.40
2019-01-22T20:50:22.182Z,26.00
2019-01-22T20:52:51.101Z,25.08
2019-01-22T20:55:22.267Z,24.72
2019-01-22T20:57:55.173Z,24.98
2019-01-22T21:00:26.146Z,25.70
2019-01-22T21:02:55.238Z,27.25
2019-01-22T21:05:29.084Z,24.85
2019-01-22T21:07:58.002Z,25.57
2019-01-22T21:10:29.136Z,25.90
2019-01-22T21:12:58.168Z,28.30
2019-01-22T21:15:27.388Z,26.30
2019-01-22T21:17:56.731Z,27.75
2019-01-22T21:20:25.880Z,28.02
2019-01-22T21:22:54.630Z,28.77
2019-01-22T21:25:24.951Z,26.90
2019-01-22T21:27:53.828Z,26.77
2019-01-22T21:30:25.871Z,26.48
2019-01-22T21:32:54.842Z,28.45
2019-01-22T21:35:23.990Z,29.87
2019-01-22T21:37:54.739Z,29.10
2019-01-22T21:40:24.293Z,28.80
2019-01-22T21:42:53.494Z,31.80
2019-01-22T21:45:25.967Z,28.67
2019-01-22T21:47:55.051Z,30.00
2019-01-22T21:50:23.972Z,32.00
2019-01-22T21:52:53.325Z,31.95
2019-01-22T21:55:29.480Z,31.07
2019-01-22T21:57:58.308Z,31.23
2019-01-22T22:00:27.798Z,31.02
2019-01-22T22:02:58.265Z,30.02
2019-01-22T22:05:30.469Z,29.75
2019-01-22T22:07:59.327Z,30.00
2019-01-22T22:10:28.172Z,32.40
2019-01-22T22:12:57.320Z,30.92
2019-01-22T22:15:27.087Z,29.23
2019-01-22T22:17:55.994Z,29.72
2019-01-22T22:20:26.829Z,29.05
2019-01-22T22:22:55.921Z,31.23
2019-01-22T22:25:25.435Z,30.65
2019-01-22T22:27:58.004Z,30.97
2019-01-22T22:30:45.765Z,29.55
2019-01-22T22:51:21.689Z,32.53
2019-01-22T23:02:59.792Z,32.23
2019-01-22T23:11:39.198Z,38.80
2019-01-22T23:17:32.959Z,36.30
2019-01-22T23:35:22.637Z,36.45
